Time;durP1;ratioP1;P1;durP2;ratioP2;P2;SDS_P1;SDS_P2;PMS_P1;PMS_P2;Temp;Humidity;BMP_temperature;BMP_pressure;BME280_temperature;BME280_humidity;BME280_pressure;Samples;Min_cycle;Max_cycle;Signal;HPM_P1;HPM_P2
2021/08/06 00:00:52;;;;;;;10.27;6.53;;;;;;;16.28;100.00;98173.56;10486135;28;20183;-77
2021/08/06 00:06:11;;;;;;;8.33;6.80;;;;;;;16.36;100.00;98168.53;10479988;28;20688;-78
2021/08/06 00:11:31;;;;;;;7.43;6.10;;;;;;;16.14;100.00;98168.59;10495718;28;20254;-78
2021/08/06 00:16:49;;;;;;;7.00;6.40;;;;;;;16.14;100.00;98162.28;10494917;28;20190;-77
2021/08/06 00:22:08;;;;;;;8.37;6.50;;;;;;;16.14;100.00;98156.75;10495462;28;20194;-76
2021/08/06 00:27:30;;;;;;;7.00;6.40;;;;;;;16.15;100.00;98158.28;10495979;28;20641;-76
2021/08/06 00:32:49;;;;;;;6.50;5.90;;;;;;;16.15;100.00;98159.03;10494300;28;20186;-78
2021/08/06 00:38:08;;;;;;;7.70;6.57;;;;;;;16.18;100.00;98160.13;10494466;28;20191;-78
2021/08/06 00:43:27;;;;;;;9.17;8.30;;;;;;;16.22;100.00;98146.91;10500210;28;20246;-76
2021/08/06 00:48:47;;;;;;;7.77;6.97;;;;;;;16.20;100.00;98143.81;10501919;28;20198;-78
2021/08/06 00:54:06;;;;;;;12.23;6.57;;;;;;;16.16;100.00;98137.59;10468436;28;20196;-78
2021/08/06 00:59:25;;;;;;;12.50;7.77;;;;;;;16.10;100.00;98129.13;10501702;28;20191;-79
2021/08/06 01:04:54;;;;;;;9.93;6.70;;;;;;;16.01;100.00;98142.19;10462507;28;20586;-77
2021/08/06 01:10:13;;;;;;;13.30;8.10;;;;;;;16.08;100.00;98153.00;10462244;28;20192;-78
2021/08/06 01:15:35;;;;;;;9.90;7.07;;;;;;;15.95;100.00;98139.25;10458710;28;20187;-79
2021/08/06 01:20:56;;;;;;;12.00;9.60;;;;;;;15.76;100.00;98136.84;10463128;28;20179;-79
2021/08/06 01:26:22;;;;;;;9.47;8.33;;;;;;;15.79;100.00;98141.50;10495433;28;20248;-78
2021/08/06 01:31:42;;;;;;;8.03;7.20;;;;;;;15.65;100.00;98144.06;10499347;28;20182;-80
2021/08/06 01:37:01;;;;;;;9.43;7.10;;;;;;;15.63;100.00;98150.06;10494774;28;20176;-76
2021/08/06 01:42:34;;;;;;;9.60;7.77;;;;;;;15.66;100.00;98137.28;10459305;28;20223;-77
2021/08/06 01:47:54;;;;;;;9.13;6.37;;;;;;;15.72;100.00;98132.69;10467181;28;20202;-78
2021/08/06 01:53:17;;;;;;;7.73;6.13;;;;;;;15.73;100.00;98137.78;10477603;28;20701;-77
2021/08/06 01:58:38;;;;;;;8.33;6.30;;;;;;;15.83;100.00;98122.72;10459116;28;20207;-81
2021/08/06 02:03:58;;;;;;;7.97;7.17;;;;;;;15.84;100.00;98127.03;10481620;28;20238;-78
2021/08/06 02:09:21;;;;;;;7.77;6.40;;;;;;;15.86;100.00;98132.91;10479217;28;20188;-80
2021/08/06 02:14:42;;;;;;;7.70;7.00;;;;;;;15.86;100.00;98123.81;10461972;28;20178;-78
2021/08/06 02:20:04;;;;;;;8.17;7.00;;;;;;;15.90;100.00;98125.22;10497854;28;20175;-81
2021/08/06 02:25:24;;;;;;;7.43;6.73;;;;;;;15.67;100.00;98122.19;10457633;28;20238;-77
2021/08/06 02:30:44;;;;;;;10.00;7.00;;;;;;;15.63;100.00;98125.09;10456629;28;20278;-77
2021/08/06 02:36:03;;;;;;;9.33;6.60;;;;;;;15.60;100.00;98117.69;10458363;28;20179;-77
2021/08/06 02:41:23;;;;;;;8.20;7.40;;;;;;;15.55;100.00;98118.28;10496365;28;20222;-77
2021/08/06 02:46:43;;;;;;;9.10;7.00;;;;;;;15.64;100.00;98109.22;10480980;28;20223;-80
2021/08/06 02:52:05;;;;;;;11.83;7.07;;;;;;;15.66;100.00;98115.09;10456256;28;20265;-77
2021/08/06 02:57:24;;;;;;;24.23;8.80;;;;;;;15.75;100.00;98113.13;10458100;28;20253;-81
2021/08/06 03:02:42;;;;;;;9.27;6.60;;;;;;;15.73;100.00;98114.81;10470384;28;20186;-78
2021/08/06 03:08:01;;;;;;;10.87;6.13;;;;;;;15.55;100.00;98128.59;10483478;28;20704;-77
2021/08/06 03:13:20;;;;;;;9.57;6.77;;;;;;;15.66;100.00;98128.97;10456150;28;20224;-77
2021/08/06 03:18:39;;;;;;;6.80;6.10;;;;;;;15.55;100.00;98126.59;10474859;28;20187;-76
2021/08/06 03:23:58;;;;;;;8.83;6.50;;;;;;;15.60;100.00;98112.16;10496885;28;20218;-79
2021/08/06 03:29:17;;;;;;;6.83;6.27;;;;;;;15.58;100.00;98114.63;10497296;28;20629;-77
2021/08/06 03:34:36;;;;;;;7.67;6.87;;;;;;;15.59;100.00;98118.91;10471672;28;20183;-77
2021/08/06 03:39:55;;;;;;;12.57;7.23;;;;;;;15.61;100.00;98119.22;10483595;28;20214;-77
2021/08/06 03:45:14;;;;;;;7.27;6.03;;;;;;;15.64;100.00;98115.56;10496434;28;20213;-79
2021/08/06 03:50:33;;;;;;;8.47;7.50;;;;;;;15.55;100.00;98123.84;10496745;28;20261;-78
2021/08/06 03:55:52;;;;;;;8.67;7.13;;;;;;;15.47;100.00;98122.56;10465453;28;20605;-77
2021/08/06 04:01:11;;;;;;;11.83;7.40;;;;;;;15.38;100.00;98121.75;10456331;28;20187;-77
2021/08/06 04:06:30;;;;;;;10.03;6.57;;;;;;;15.29;100.00;98128.00;10474427;28;20293;-78
2021/08/06 04:11:49;;;;;;;11.23;6.23;;;;;;;15.24;100.00;98120.28;10482551;28;20187;-76
2021/08/06 04:17:08;;;;;;;11.13;7.57;;;;;;;15.20;100.00;98119.59;10498569;28;20195;-76
2021/08/06 04:22:27;;;;;;;11.13;8.30;;;;;;;15.32;100.00;98123.53;10503832;28;20633;-77
2021/08/06 04:27:47;;;;;;;8.87;7.43;;;;;;;15.31;100.00;98117.25;10495900;28;20544;-77
2021/08/06 04:33:05;;;;;;;12.60;7.60;;;;;;;15.27;100.00;98126.91;10461432;28;20187;-76
2021/08/06 04:38:25;;;;;;;7.20;6.70;;;;;;;15.29;100.00;98110.63;10480295;28;20186;-79
2021/08/06 04:43:44;;;;;;;11.60;6.67;;;;;;;15.45;100.00;98110.41;10503078;28;20210;-77
2021/08/06 04:49:04;;;;;;;9.90;6.43;;;;;;;15.65;100.00;98106.03;10501082;28;20194;-78
2021/08/06 04:54:23;;;;;;;8.63;6.10;;;;;;;15.85;100.00;98094.53;10503221;28;20167;-77
2021/08/06 04:59:42;;;;;;;8.20;7.50;;;;;;;16.06;100.00;98103.53;10502835;28;20163;-79
2021/08/06 05:05:02;;;;;;;9.07;8.23;;;;;;;16.36;100.00;98104.69;10501331;28;20564;-78
2021/08/06 05:10:24;;;;;;;8.30;7.60;;;;;;;16.51;100.00;98097.31;10480136;28;20179;-79
2021/08/06 05:15:43;;;;;;;8.10;7.10;;;;;;;16.74;100.00;98091.91;10476313;28;20174;-80
2021/08/06 05:21:02;;;;;;;8.23;7.47;;;;;;;16.94;100.00;98089.41;10501966;28;20167;-77
2021/08/06 05:26:21;;;;;;;7.20;6.60;;;;;;;17.14;100.00;98090.47;10496121;28;20215;-78
2021/08/06 05:31:40;;;;;;;6.87;6.40;;;;;;;17.47;100.00;98094.13;10458851;28;20544;-78
2021/08/06 05:36:59;;;;;;;12.20;6.23;;;;;;;17.66;100.00;98098.38;10459974;28;20254;-78
2021/08/06 05:42:19;;;;;;;6.10;5.60;;;;;;;17.72;100.00;98102.84;10458223;28;20219;-80
2021/08/06 05:47:53;;;;;;;10.00;5.57;;;;;;;17.77;100.00;98109.75;10458164;28;20195;-77
2021/08/06 05:53:11;;;;;;;5.30;4.77;;;;;;;17.81;100.00;98110.38;10459322;28;20514;-77
2021/08/06 05:58:30;;;;;;;7.27;5.70;;;;;;;17.80;100.00;98109.63;10459033;28;20171;-79
2021/08/06 06:03:49;;;;;;;6.00;5.40;;;;;;;17.76;100.00;98113.81;10467035;28;20301;-79
2021/08/06 06:09:09;;;;;;;5.87;5.10;;;;;;;17.88;100.00;98107.25;10499842;28;20186;-78
2021/08/06 06:14:28;;;;;;;6.07;4.40;;;;;;;17.97;100.00;98118.34;10500081;28;20186;-76
2021/08/06 06:19:47;;;;;;;3.70;3.43;;;;;;;17.85;100.00;98127.69;10498637;28;20171;-77
2021/08/06 06:25:08;;;;;;;4.27;3.00;;;;;;;17.84;100.00;98143.59;10499226;28;20661;-77
2021/08/06 06:30:29;;;;;;;11.63;3.00;;;;;;;17.39;100.00;98140.16;10498420;28;20645;-76
2021/08/06 06:35:49;;;;;;;4.30;3.83;;;;;;;17.25;100.00;98145.56;10498395;28;20182;-81
2021/08/06 06:41:08;;;;;;;4.30;3.00;;;;;;;17.14;100.00;98137.72;10498183;28;20717;-81
2021/08/06 06:46:26;;;;;;;9.40;3.50;;;;;;;17.00;100.00;98141.13;10496919;28;20927;-77
2021/08/06 06:51:45;;;;;;;5.53;3.00;;;;;;;16.76;100.00;98144.22;10498683;28;20599;-82
2021/08/06 06:57:05;;;;;;;3.67;3.30;;;;;;;16.73;100.00;98153.47;10497333;28;20175;-77
2021/08/06 07:02:24;;;;;;;2.87;2.67;;;;;;;16.63;100.00;98157.50;10480899;28;20192;-75
2021/08/06 07:07:43;;;;;;;3.07;2.87;;;;;;;16.59;100.00;98156.84;10490679;28;20191;-76
2021/08/06 07:13:02;;;;;;;2.60;2.50;;;;;;;16.45;100.00;98152.66;10498016;28;20175;-79
2021/08/06 07:18:21;;;;;;;2.80;2.60;;;;;;;16.39;100.00;98157.28;10496730;28;20628;-80
2021/08/06 07:23:40;;;;;;;5.17;3.30;;;;;;;16.40;100.00;98160.81;10497464;28;20210;-77
2021/08/06 07:28:59;;;;;;;4.70;2.77;;;;;;;16.42;100.00;98172.25;10496662;28;20551;-81
2021/08/06 07:34:18;;;;;;;3.20;2.90;;;;;;;16.54;100.00;98182.47;10472911;28;20600;-78
2021/08/06 07:39:38;;;;;;;9.00;8.10;;;;;;;16.39;100.00;98179.50;10463183;28;20222;-79
2021/08/06 07:44:57;;;;;;;3.33;3.13;;;;;;;16.38;100.00;98179.97;10496735;28;20210;-78
2021/08/06 07:50:17;;;;;;;3.07;2.77;;;;;;;16.31;100.00;98183.03;10492529;28;20183;-76
2021/08/06 07:55:36;;;;;;;3.67;3.37;;;;;;;16.28;100.00;98195.00;10463991;28;20175;-78
2021/08/06 08:00:55;;;;;;;4.23;3.93;;;;;;;16.22;100.00;98186.50;10462744;28;20625;-76
2021/08/06 08:06:14;;;;;;;3.10;2.90;;;;;;;16.24;100.00;98177.72;10462331;28;20289;-80
2021/08/06 08:11:33;;;;;;;3.37;2.23;;;;;;;16.33;100.00;98189.66;10495393;28;20183;-78
2021/08/06 08:16:52;;;;;;;3.27;3.00;;;;;;;16.37;100.00;98181.19;10503571;28;20532;-76
2021/08/06 08:22:12;;;;;;;2.90;2.70;;;;;;;16.44;100.00;98187.19;10495025;28;20179;-81
2021/08/06 08:27:32;;;;;;;2.80;2.50;;;;;;;16.47;100.00;98196.66;10462426;28;20214;-81
2021/08/06 08:32:51;;;;;;;5.90;5.40;;;;;;;16.62;100.00;98192.03;10461531;28;20179;-82
2021/08/06 08:38:10;;;;;;;6.17;5.57;;;;;;;16.71;100.00;98194.84;10462664;28;20171;-82
2021/08/06 08:43:29;;;;;;;3.23;3.03;;;;;;;16.59;100.00;98195.72;10461054;28;20698;-80
2021/08/06 08:48:50;;;;;;;4.10;3.70;;;;;;;16.64;100.00;98189.59;10460942;28;20175;-82
2021/08/06 08:54:09;;;;;;;3.07;2.83;;;;;;;17.02;100.00;98187.91;10487069;28;20265;-82
2021/08/06 08:59:29;;;;;;;3.30;3.10;;;;;;;17.66;100.00;98184.63;10503111;28;20186;-83
2021/08/06 09:04:48;;;;;;;3.30;3.10;;;;;;;18.27;100.00;98184.09;10499854;28;20207;-78
2021/08/06 09:10:11;;;;;;;3.37;3.17;;;;;;;17.80;100.00;98175.59;10502654;28;20179;-78
2021/08/06 09:15:52;;;;;;;3.00;2.80;;;;;;;18.81;100.00;98182.53;10501383;28;20262;-79
2021/08/06 09:21:14;;;;;;;8.23;3.53;;;;;;;18.80;100.00;98185.78;10498025;28;20610;-78
2021/08/06 09:26:41;;;;;;;3.33;3.13;;;;;;;19.31;100.00;98179.50;10460161;28;20215;-78
2021/08/06 09:32:00;;;;;;;5.07;4.70;;;;;;;19.04;100.00;98181.75;10459380;28;20207;-84
2021/08/06 09:37:22;;;;;;;3.60;3.40;;;;;;;19.49;100.00;98176.56;10459329;28;20191;-86
2021/08/06 09:43:16;;;;;;;3.67;3.37;;;;;;;19.69;100.00;98178.66;10459752;28;20637;-81
2021/08/06 09:48:35;;;;;;;2.93;2.77;;;;;;;19.86;100.00;98176.94;10460279;28;20285;-82
2021/08/06 09:53:54;;;;;;;3.53;3.23;;;;;;;19.42;100.00;98185.31;10484672;28;20183;-84
2021/08/06 09:59:25;;;;;;;4.77;3.77;;;;;;;19.10;100.00;98179.84;10501020;28;20174;-85
2021/08/06 10:04:58;;;;;;;2.83;2.63;;;;;;;18.75;100.00;98180.88;10499194;28;20206;-80
2021/08/06 10:10:27;;;;;;;3.00;2.80;;;;;;;19.37;100.00;98168.47;10482153;28;20210;-80
2021/08/06 10:15:46;;;;;;;2.63;2.53;;;;;;;19.94;100.00;98173.25;10488516;28;20195;-80
2021/08/06 10:21:05;;;;;;;2.43;2.33;;;;;;;20.09;98.01;98168.44;10495182;28;20243;-77
2021/08/06 10:26:25;;;;;;;2.50;2.30;;;;;;;19.56;100.00;98175.38;10457821;28;20246;-79
2021/08/06 10:32:11;;;;;;;5.63;2.03;;;;;;;19.50;100.00;98171.72;10457186;28;20178;-78
2021/08/06 10:37:57;;;;;;;1.80;1.70;;;;;;;19.42;99.68;98171.34;10455326;28;20191;-76
2021/08/06 10:43:51;;;;;;;3.33;2.10;;;;;;;20.10;93.61;98159.59;10456631;28;20257;-79
2021/08/06 10:49:11;;;;;;;1.93;1.83;;;;;;;20.37;90.90;98176.00;10456141;28;20626;-76
2021/08/06 10:54:30;;;;;;;2.93;2.10;;;;;;;19.99;92.44;98149.50;10487848;28;20194;-76
2021/08/06 10:59:50;;;;;;;4.03;1.70;;;;;;;20.88;88.44;98150.28;10498310;28;20178;-80
2021/08/06 11:05:32;;;;;;;11.63;2.17;;;;;;;20.63;87.34;98151.72;10496750;28;20210;-76
2021/08/06 11:10:52;;;;;;;2.27;2.10;;;;;;;21.00;87.69;98147.13;10498169;28;20191;-76
2021/08/06 11:16:12;;;;;;;2.47;1.70;;;;;;;20.87;87.98;98146.72;10496775;28;20171;-75
2021/08/06 11:21:39;;;;;;;2.10;2.00;;;;;;;20.63;87.82;98156.53;10486351;28;20179;-75
2021/08/06 11:26:59;;;;;;;1.93;1.83;;;;;;;20.70;84.72;98136.56;10455423;28;20223;-75
2021/08/06 11:32:17;;;;;;;2.40;1.93;;;;;;;21.05;86.02;98138.03;10454835;28;20203;-75
2021/08/06 11:37:47;;;;;;;2.20;1.83;;;;;;;20.54;86.28;98149.06;10455924;28;20179;-74
2021/08/06 11:43:10;;;;;;;2.40;2.20;;;;;;;20.39;89.65;98162.31;10455113;28;20231;-76
2021/08/06 11:48:43;;;;;;;3.27;2.30;;;;;;;20.83;87.08;98154.56;10454682;28;20183;-76
2021/08/06 11:54:09;;;;;;;2.20;2.00;;;;;;;22.39;77.26;98149.44;10480411;28;20588;-74
2021/08/06 11:59:29;;;;;;;2.40;2.20;;;;;;;21.56;77.31;98169.63;10472543;28;20592;-74
2021/08/06 12:04:48;;;;;;;3.00;2.10;;;;;;;21.08;78.15;98160.19;10495551;28;20202;-74
2021/08/06 12:10:07;;;;;;;2.73;1.90;;;;;;;20.52;80.05;98157.16;10495937;28;20630;-76
2021/08/06 12:15:27;;;;;;;2.60;1.67;;;;;;;20.30;80.45;98148.47;10493682;28;20170;-75
2021/08/06 12:20:52;;;;;;;4.87;1.60;;;;;;;20.53;77.87;98146.75;10454429;28;20187;-75
2021/08/06 12:26:19;;;;;;;1.77;1.67;;;;;;;20.76;75.60;98140.97;10453517;28;20207;-75
2021/08/06 12:32:05;;;;;;;7.13;1.67;;;;;;;21.62;73.91;98148.06;10453853;28;20207;-74
2021/08/06 12:37:32;;;;;;;2.20;1.90;;;;;;;22.56;73.81;98142.69;10456346;28;20199;-75
2021/08/06 12:42:51;;;;;;;2.10;1.90;;;;;;;22.58;70.10;98144.97;10480724;28;20210;-74
2021/08/06 12:48:10;;;;;;;2.50;1.60;;;;;;;22.60;68.70;98142.44;10501544;28;20262;-75
2021/08/06 12:53:32;;;;;;;3.67;1.40;;;;;;;23.32;66.38;98147.09;10502293;28;20182;-75
2021/08/06 12:59:18;;;;;;;1.60;1.50;;;;;;;24.13;63.23;98148.47;10503241;28;20633;-75
2021/08/06 13:04:37;;;;;;;1.10;1.00;;;;;;;23.39;61.33;98152.19;10501564;28;20590;-77
2021/08/06 13:09:56;;;;;;;1.90;1.30;;;;;;;22.36;66.36;98152.50;10501763;28;20179;-75
2021/08/06 13:15:15;;;;;;;1.20;1.10;;;;;;;23.39;64.69;98146.59;10493308;28;20540;-76
2021/08/06 13:20:38;;;;;;;1.43;1.33;;;;;;;23.67;60.73;98134.13;10502180;28;20202;-76
2021/08/06 13:25:57;;;;;;;2.17;1.37;;;;;;;22.53;63.81;98140.88;10501745;28;20653;-75
2021/08/06 13:31:16;;;;;;;1.53;1.43;;;;;;;21.86;65.55;98149.31;10500786;28;20202;-75
2021/08/06 13:36:35;;;;;;;2.13;1.60;;;;;;;22.67;64.14;98144.78;10501876;28;20625;-75
2021/08/06 13:41:54;;;;;;;1.57;1.47;;;;;;;21.79;67.32;98144.16;10493701;28;20207;-74
2021/08/06 13:47:13;;;;;;;1.50;1.40;;;;;;;22.33;68.08;98137.44;10458079;28;20211;-76
2021/08/06 13:52:32;;;;;;;1.50;1.40;;;;;;;23.05;66.04;98138.59;10459786;28;20180;-74
2021/08/06 13:57:51;;;;;;;1.40;1.27;;;;;;;23.90;60.46;98140.56;10459417;28;20172;-76
2021/08/06 14:03:10;;;;;;;1.50;1.20;;;;;;;23.63;60.17;98149.69;10456888;28;20175;-73
2021/08/06 14:08:29;;;;;;;1.77;1.33;;;;;;;23.63;59.20;98153.28;10498192;28;20257;-76
2021/08/06 14:13:49;;;;;;;1.10;1.00;;;;;;;22.93;58.56;98176.28;10499553;28;20183;-75
2021/08/06 14:19:07;;;;;;;1.60;1.30;;;;;;;22.15;62.96;98167.88;10482835;28;20190;-74
2021/08/06 14:24:26;;;;;;;3.50;1.40;;;;;;;22.10;64.37;98166.56;10460847;28;20207;-75
2021/08/06 14:29:45;;;;;;;1.67;1.57;;;;;;;21.91;66.17;98165.38;10457101;28;20192;-76
2021/08/06 14:35:05;;;;;;;1.60;1.50;;;;;;;22.63;63.47;98169.47;10456732;28;20254;-76
2021/08/06 14:40:24;;;;;;;1.63;1.20;;;;;;;22.61;63.44;98172.78;10457490;28;20215;-74
2021/08/06 14:45:43;;;;;;;1.53;1.43;;;;;;;22.92;63.43;98174.72;10492906;28;20296;-74
2021/08/06 14:51:03;;;;;;;2.10;1.40;;;;;;;22.99;61.70;98166.59;10497766;28;20202;-76
2021/08/06 14:56:24;;;;;;;2.30;1.27;;;;;;;22.55;64.69;98165.59;10497742;28;20203;-76
2021/08/06 15:01:43;;;;;;;3.63;1.80;;;;;;;21.94;66.34;98174.81;10495739;28;20257;-75
2021/08/06 15:07:02;;;;;;;1.30;1.17;;;;;;;22.22;66.17;98161.78;10497689;28;20202;-75
2021/08/06 15:12:20;;;;;;;3.50;1.30;;;;;;;21.70;62.22;98177.94;10495415;28;20187;-73
2021/08/06 15:17:41;;;;;;;4.27;2.00;;;;;;;21.90;62.80;98172.25;10496469;28;20167;-76
2021/08/06 15:23:00;;;;;;;1.37;1.27;;;;;;;21.40;64.22;98183.44;10497412;28;20386;-75
2021/08/06 15:28:19;;;;;;;2.10;1.60;;;;;;;21.52;64.52;98169.06;10496471;28;20171;-76
2021/08/06 15:33:38;;;;;;;1.50;1.30;;;;;;;22.10;63.76;98177.75;10494264;28;20178;-77
2021/08/06 15:38:57;;;;;;;1.83;1.73;;;;;;;22.21;62.01;98185.47;10497282;28;20222;-76
2021/08/06 15:44:16;;;;;;;1.30;1.20;;;;;;;21.79;64.23;98191.75;10495763;28;20222;-76
2021/08/06 15:49:36;;;;;;;2.10;1.17;;;;;;;21.44;65.66;98187.56;10495690;28;20257;-75
2021/08/06 15:54:55;;;;;;;1.80;1.60;;;;;;;21.64;66.03;98184.72;10497047;28;20179;-76
2021/08/06 16:00:14;;;;;;;2.77;1.70;;;;;;;21.47;67.87;98191.41;10496028;28;20261;-75
2021/08/06 16:05:33;;;;;;;1.90;1.30;;;;;;;21.28;66.56;98193.72;10470648;28;20693;-77
2021/08/06 16:10:52;;;;;;;1.40;1.30;;;;;;;21.83;66.31;98203.50;10454564;28;20187;-76
2021/08/06 16:16:11;;;;;;;1.57;1.47;;;;;;;22.56;64.67;98190.34;10461056;28;20183;-74
2021/08/06 16:21:31;;;;;;;2.07;1.50;;;;;;;22.50;63.55;98194.38;10465518;28;20218;-77
2021/08/06 16:26:51;;;;;;;3.10;1.40;;;;;;;22.05;66.59;98202.91;10499141;28;20214;-77
2021/08/06 16:32:11;;;;;;;1.90;1.60;;;;;;;21.76;68.41;98203.94;10501905;28;20190;-76
2021/08/06 16:37:30;;;;;;;3.23;1.53;;;;;;;21.56;68.66;98203.22;10463423;28;20237;-77
2021/08/06 16:42:50;;;;;;;2.83;1.47;;;;;;;21.39;69.66;98202.25;10460599;28;20219;-77
2021/08/06 16:48:10;;;;;;;1.70;1.60;;;;;;;21.11;70.47;98211.56;10461016;28;20203;-75
2021/08/06 16:53:29;;;;;;;1.40;1.30;;;;;;;20.84;72.13;98209.19;10461896;28;20258;-75
2021/08/06 16:58:48;;;;;;;1.70;1.60;;;;;;;20.83;71.73;98206.88;10460902;28;20176;-75
2021/08/06 17:04:07;;;;;;;1.67;1.57;;;;;;;20.81;72.67;98212.97;10463838;28;20195;-75
2021/08/06 17:09:26;;;;;;;2.30;2.07;;;;;;;20.86;71.61;98203.88;10494794;28;20175;-76
2021/08/06 17:14:45;;;;;;;1.87;1.77;;;;;;;20.94;69.86;98210.59;10460027;28;20168;-76
2021/08/06 17:20:05;;;;;;;1.87;1.73;;;;;;;20.88;70.32;98213.31;10458937;28;20214;-76
2021/08/06 17:25:25;;;;;;;6.90;2.00;;;;;;;21.13;69.52;98209.06;10459152;28;20202;-75
2021/08/06 17:30:44;;;;;;;5.20;2.13;;;;;;;21.51;67.48;98212.31;10459427;28;20179;-77
2021/08/06 17:36:03;;;;;;;1.60;1.47;;;;;;;21.02;69.95;98211.72;10459703;28;20262;-77
2021/08/06 17:41:22;;;;;;;3.60;2.00;;;;;;;21.95;66.18;98210.75;10458619;28;20697;-76
2021/08/06 17:46:41;;;;;;;1.63;1.30;;;;;;;23.88;58.99;98211.31;10457526;28;20207;-77
2021/08/06 17:52:01;;;;;;;2.07;1.60;;;;;;;22.39;62.46;98210.34;10459743;28;20608;-77
2021/08/06 17:57:21;;;;;;;1.83;1.60;;;;;;;22.96;61.19;98203.28;10459691;28;20175;-77
2021/08/06 18:02:44;;;;;;;1.60;1.50;;;;;;;21.60;66.94;98208.59;10458226;28;20163;-76
2021/08/06 18:08:03;;;;;;;2.00;1.70;;;;;;;21.19;70.71;98210.69;10458657;28;20215;-76
2021/08/06 18:13:23;;;;;;;1.70;1.60;;;;;;;20.79;71.91;98204.31;10490194;28;20252;-76
2021/08/06 18:18:42;;;;;;;2.90;1.70;;;;;;;20.58;72.63;98205.53;10498744;28;20171;-76
2021/08/06 18:24:01;;;;;;;1.90;1.50;;;;;;;20.53;72.80;98213.81;10498618;28;20736;-76
2021/08/06 18:29:20;;;;;;;1.87;1.77;;;;;;;20.42;73.71;98220.03;10498587;28;20269;-75
2021/08/06 18:34:39;;;;;;;1.63;1.53;;;;;;;20.12;74.97;98221.31;10497514;28;21326;-75
2021/08/06 18:39:58;;;;;;;1.80;1.70;;;;;;;19.95;75.70;98221.53;10494643;28;20215;-75
2021/08/06 18:45:19;;;;;;;1.93;1.50;;;;;;;19.81;76.30;98227.84;10473885;28;20214;-77
2021/08/06 18:50:38;;;;;;;2.63;1.87;;;;;;;19.63;77.12;98225.22;10463015;28;20768;-78
2021/08/06 18:55:57;;;;;;;2.97;1.63;;;;;;;19.52;76.95;98231.38;10456374;28;20206;-76
2021/08/06 19:01:15;;;;;;;3.63;1.67;;;;;;;19.28;78.36;98238.25;10456031;28;20175;-78
2021/08/06 19:06:34;;;;;;;2.30;1.30;;;;;;;19.14;79.22;98244.59;10455454;28;20665;-77
2021/08/06 19:11:53;;;;;;;1.70;1.50;;;;;;;19.05;79.78;98249.41;10477348;28;20544;-77
2021/08/06 19:17:13;;;;;;;2.70;1.40;;;;;;;18.88;81.02;98254.63;10495642;28;20182;-77
2021/08/06 19:22:32;;;;;;;1.63;1.47;;;;;;;18.66;81.97;98256.16;10496988;28;20535;-77
2021/08/06 19:27:52;;;;;;;2.07;1.30;;;;;;;18.69;81.33;98274.72;10497169;28;20293;-77
2021/08/06 19:33:14;;;;;;;2.20;1.83;;;;;;;18.41;83.23;98273.28;10496447;28;20170;-77
2021/08/06 19:38:34;;;;;;;2.30;1.10;;;;;;;18.26;84.97;98272.44;10496358;28;20542;-77
2021/08/06 19:43:53;;;;;;;1.43;1.33;;;;;;;18.32;84.91;98275.34;10485033;28;20210;-76
2021/08/06 19:49:19;;;;;;;4.03;1.80;;;;;;;18.12;86.57;98275.06;10487028;28;20186;-76
2021/08/06 19:54:38;;;;;;;2.17;1.97;;;;;;;17.97;88.67;98279.75;10488915;28;20171;-77
2021/08/06 19:59:57;;;;;;;2.60;2.40;;;;;;;17.70;90.14;98288.91;10508600;28;20182;-76
2021/08/06 20:05:16;;;;;;;5.67;1.60;;;;;;;17.79;90.62;98294.47;10508008;28;20292;-76
2021/08/06 20:10:37;;;;;;;2.10;1.90;;;;;;;17.53;91.71;98295.25;10498132;28;20195;-77
2021/08/06 20:15:56;;;;;;;2.20;1.67;;;;;;;17.43;92.79;98290.16;10467865;28;20171;-78
2021/08/06 20:21:16;;;;;;;4.60;1.90;;;;;;;17.23;95.63;98285.03;10469062;28;20183;-77
2021/08/06 20:26:37;;;;;;;6.13;2.50;;;;;;;17.21;96.69;98284.72;10468483;28;20211;-76
2021/08/06 20:31:56;;;;;;;2.83;2.03;;;;;;;17.06;96.88;98283.78;10467634;28;20175;-77
2021/08/06 20:37:15;;;;;;;2.10;1.90;;;;;;;16.95;97.91;98282.69;10468854;28;20254;-78
2021/08/06 20:42:34;;;;;;;1.97;1.77;;;;;;;16.87;98.23;98289.75;10496454;28;20226;-77
2021/08/06 20:47:53;;;;;;;2.77;2.37;;;;;;;16.93;97.34;98285.91;10493107;28;20198;-77
2021/08/06 20:53:13;;;;;;;2.13;1.80;;;;;;;17.01;96.16;98286.38;10508906;28;20299;-77
2021/08/06 20:58:32;;;;;;;4.30;1.90;;;;;;;17.04;95.87;98291.03;10506138;28;20553;-76
2021/08/06 21:03:53;;;;;;;4.07;1.60;;;;;;;16.94;95.25;98292.25;10501716;28;20195;-76
2021/08/06 21:09:12;;;;;;;3.70;1.87;;;;;;;17.07;94.49;98288.09;10499784;28;20269;-78
2021/08/06 21:14:30;;;;;;;2.20;2.00;;;;;;;17.08;93.51;98289.66;10483076;28;20190;-75
2021/08/06 21:19:50;;;;;;;1.90;1.80;;;;;;;17.03;94.00;98301.38;10500757;28;20253;-76
2021/08/06 21:25:09;;;;;;;2.77;1.80;;;;;;;17.06;94.44;98308.03;10502006;28;20218;-78
2021/08/06 21:30:28;;;;;;;2.07;1.80;;;;;;;16.88;94.94;98300.41;10502223;28;20178;-76
2021/08/06 21:35:50;;;;;;;2.30;2.10;;;;;;;16.69;96.69;98300.06;10502034;28;20182;-78
2021/08/06 21:41:09;;;;;;;2.23;2.03;;;;;;;16.47;97.61;98294.56;10481810;28;20219;-77
2021/08/06 21:46:28;;;;;;;2.23;2.03;;;;;;;16.55;98.03;98298.63;10458368;28;20215;-78
2021/08/06 21:51:47;;;;;;;1.60;1.50;;;;;;;16.57;97.96;98292.59;10459870;28;20202;-77
2021/08/06 21:57:06;;;;;;;1.90;1.60;;;;;;;16.34;99.82;98282.81;10459817;28;20634;-78
2021/08/06 22:02:25;;;;;;;2.53;2.30;;;;;;;16.24;100.00;98297.84;10458171;28;20261;-77
2021/08/06 22:07:44;;;;;;;2.50;2.30;;;;;;;16.24;100.00;98294.28;10457758;28;20234;-78
2021/08/06 22:13:03;;;;;;;4.83;4.43;;;;;;;16.09;100.00;98288.53;10492266;28;20182;-77
2021/08/06 22:18:22;;;;;;;5.90;3.20;;;;;;;16.02;100.00;98299.09;10498972;28;20183;-76
2021/08/06 22:23:42;;;;;;;2.23;2.03;;;;;;;16.05;100.00;98292.66;10498941;28;20289;-76
2021/08/06 22:29:01;;;;;;;4.50;2.17;;;;;;;16.08;100.00;98280.63;10498709;28;20178;-77
2021/08/06 22:34:20;;;;;;;2.47;2.10;;;;;;;15.92;100.00;98280.09;10485441;28;20180;-77
2021/08/06 22:39:39;;;;;;;2.73;2.40;;;;;;;15.88;100.00;98280.22;10457521;28;20227;-76
2021/08/06 22:44:58;;;;;;;2.97;2.40;;;;;;;15.82;100.00;98284.81;10457505;28;20203;-78
2021/08/06 22:50:17;;;;;;;3.17;2.10;;;;;;;15.63;100.00;98299.00;10489033;28;20183;-77
2021/08/06 22:55:37;;;;;;;3.73;2.40;;;;;;;15.58;100.00;98296.81;10498607;28;20254;-77
2021/08/06 23:00:56;;;;;;;4.90;2.50;;;;;;;15.44;100.00;98300.84;10497221;28;21014;-76
2021/08/06 23:06:15;;;;;;;3.07;2.70;;;;;;;15.33;100.00;98305.22;10498242;28;20589;-77
2021/08/06 23:11:34;;;;;;;5.77;2.60;;;;;;;15.27;100.00;98304.25;10498457;28;20575;-76
2021/08/06 23:16:53;;;;;;;2.70;2.50;;;;;;;15.17;100.00;98313.66;10491939;28;20183;-77
2021/08/06 23:22:12;;;;;;;5.00;2.67;;;;;;;15.12;100.00;98307.91;10456248;28;20172;-77
2021/08/06 23:27:31;;;;;;;4.17;3.27;;;;;;;14.93;100.00;98300.69;10455701;28;20207;-77
2021/08/06 23:32:50;;;;;;;4.63;3.57;;;;;;;14.83;100.00;98296.25;10454941;28;20183;-78
2021/08/06 23:38:10;;;;;;;3.73;3.33;;;;;;;14.90;100.00;98301.56;10455848;28;20604;-77
2021/08/06 23:43:29;;;;;;;2.87;2.67;;;;;;;14.89;100.00;98302.78;10454904;28;20187;-78
2021/08/06 23:48:48;;;;;;;4.00;3.00;;;;;;;14.90;100.00;98301.56;10469646;28;20175;-77
2021/08/06 23:54:08;;;;;;;3.30;3.10;;;;;;;14.88;100.00;98309.53;10455833;28;20194;-78
2021/08/06 23:59:26;;;;;;;4.63;4.07;;;;;;;14.77;100.00;98312.66;10455733;28;20199;-76
